Time;durP1;ratioP1;P1;durP2;ratioP2;P2;SDS_P1;SDS_P2;PMS_P1;PMS_P2;Temp;Humidity;BMP_temperature;BMP_pressure;BME280_temperature;BME280_humidity;BME280_pressure;Samples;Min_cycle;Max_cycle;Signal;HPM_P1;HPM_P2
2022/03/11 00:02:11;;;;;;;14.77;7.00;;;;;;;9.54;33.63;100214.22;4887639;29;20052;-87
2022/03/11 00:04:37;;;;;;;13.17;5.30;;;;;;;9.71;33.54;100195.13;4888172;29;20196;-85
2022/03/11 00:07:02;;;;;;;12.05;5.47;;;;;;;9.67;33.67;100210.31;4887320;29;20295;-88
2022/03/11 00:09:27;;;;;;;10.93;4.85;;;;;;;9.78;33.73;100197.69;4888211;29;20107;-87
2022/03/11 00:11:52;;;;;;;11.97;5.93;;;;;;;9.82;33.04;100187.97;4887557;29;20040;-87
2022/03/11 00:14:18;;;;;;;10.80;5.67;;;;;;;9.85;33.53;100198.34;4887205;29;20279;-87
2022/03/11 00:16:43;;;;;;;13.38;5.40;;;;;;;9.63;33.64;100195.56;4882646;29;20739;-87
2022/03/11 00:19:08;;;;;;;12.30;5.63;;;;;;;9.78;33.38;100182.16;4901630;29;20116;-87
2022/03/11 00:21:34;;;;;;;9.73;5.40;;;;;;;9.87;33.47;100188.03;4907596;29;20546;-87
2022/03/11 00:23:59;;;;;;;12.57;5.90;;;;;;;9.91;33.09;100197.34;4906556;29;20263;-88
2022/03/11 00:26:25;;;;;;;14.00;5.50;;;;;;;9.58;33.78;100182.66;4907560;29;20080;-87
2022/03/11 00:28:50;;;;;;;11.43;5.80;;;;;;;9.27;34.24;100193.06;4905950;29;20263;-87
2022/03/11 00:31:16;;;;;;;13.07;5.75;;;;;;;9.69;33.85;100189.94;4907530;29;20024;-86
2022/03/11 00:33:41;;;;;;;13.82;6.07;;;;;;;9.72;33.75;100182.34;4907048;29;20030;-88
2022/03/11 00:36:06;;;;;;;11.98;5.28;;;;;;;9.77;33.61;100196.88;4889715;29;20036;-88
2022/03/11 00:38:32;;;;;;;13.48;6.80;;;;;;;9.71;33.75;100206.03;4906469;29;20024;-88
2022/03/11 00:40:59;;;;;;;12.98;6.30;;;;;;;9.89;33.72;100201.38;4906426;29;20024;-88
2022/03/11 00:43:25;;;;;;;10.13;4.70;;;;;;;9.90;33.73;100205.78;4890093;29;20028;-87
2022/03/11 00:45:51;;;;;;;13.70;6.95;;;;;;;9.44;34.64;100198.50;4906413;29;20519;-87
2022/03/11 00:48:17;;;;;;;10.63;5.72;;;;;;;9.77;34.23;100190.59;4907401;29;20048;-87
2022/03/11 00:50:43;;;;;;;13.67;6.70;;;;;;;9.65;34.56;100196.97;4889384;29;20071;-87
2022/03/11 00:53:08;;;;;;;14.50;6.35;;;;;;;9.26;35.30;100194.13;4906367;29;20259;-88
2022/03/11 00:55:33;;;;;;;11.33;5.70;;;;;;;9.38;35.14;100194.88;4925835;29;20487;-87
2022/03/11 00:57:59;;;;;;;10.43;4.88;;;;;;;9.44;35.09;100199.34;4925318;29;20258;-87
2022/03/11 01:00:24;;;;;;;13.57;5.55;;;;;;;9.41;34.81;100188.97;4925942;29;20405;-87
2022/03/11 01:02:49;;;;;;;14.00;6.22;;;;;;;9.26;35.63;100188.69;4925382;29;20134;-86
2022/03/11 01:05:15;;;;;;;13.68;6.63;;;;;;;9.31;35.61;100186.91;4926117;29;20039;-88
2022/03/11 01:07:40;;;;;;;10.05;5.45;;;;;;;9.11;36.14;100190.09;4924705;29;20066;-86
2022/03/11 01:10:07;;;;;;;13.45;5.72;;;;;;;9.09;36.18;100186.78;4926329;29;20078;-87
2022/03/11 01:12:32;;;;;;;11.95;6.45;;;;;;;9.25;36.01;100179.72;4925086;29;20403;-87
2022/03/11 01:14:57;;;;;;;16.67;6.95;;;;;;;9.36;35.47;100177.97;4925387;29;20024;-87
2022/03/11 01:17:23;;;;;;;14.65;7.82;;;;;;;9.41;35.71;100188.97;4908240;29;20663;-87
2022/03/11 01:19:48;;;;;;;9.77;5.68;;;;;;;9.31;35.77;100188.78;4893488;29;20119;-87
2022/03/11 01:22:13;;;;;;;17.08;7.40;;;;;;;9.34;35.86;100177.41;4888384;29;20483;-87
2022/03/11 01:24:39;;;;;;;17.58;7.15;;;;;;;9.57;35.82;100175.59;4887250;29;20039;-87
2022/03/11 01:27:05;;;;;;;15.63;6.57;;;;;;;9.38;35.98;100181.28;4900942;29;20127;-87
2022/03/11 01:29:43;;;;;;;12.68;7.22;;;;;;;8.81;36.68;100175.66;4906094;29;20115;-88
2022/03/11 01:32:08;;;;;;;12.18;5.88;;;;;;;9.20;36.28;100166.84;4889682;29;20028;-87
2022/03/11 01:34:35;;;;;;;12.57;4.88;;;;;;;9.30;35.99;100170.78;4906504;29;20399;-87
2022/03/11 01:37:00;;;;;;;13.40;6.47;;;;;;;9.23;36.16;100171.78;4905872;29;20055;-87
2022/03/11 01:39:25;;;;;;;17.05;7.78;;;;;;;9.21;36.29;100165.75;4890443;29;20064;-88
2022/03/11 01:41:51;;;;;;;14.88;6.03;;;;;;;9.23;36.77;100165.53;4909149;29;20025;-87
2022/03/11 01:44:16;;;;;;;15.55;6.10;;;;;;;9.28;36.40;100157.44;4896185;29;20115;-86
2022/03/11 01:46:41;;;;;;;14.10;6.93;;;;;;;9.14;37.04;100145.22;4902691;29;20032;-88
2022/03/11 01:49:09;;;;;;;12.00;5.47;;;;;;;9.06;36.89;100154.63;4909909;29;20279;-88
2022/03/11 01:51:38;;;;;;;15.02;8.00;;;;;;;9.03;36.95;100153.19;4909707;29;20503;-87
2022/03/11 01:54:04;;;;;;;16.00;7.25;;;;;;;8.98;37.27;100143.06;4909497;29;20119;-87
2022/03/11 01:56:30;;;;;;;15.00;7.13;;;;;;;8.88;37.48;100153.75;4910195;29;20511;-87
2022/03/11 01:58:56;;;;;;;16.23;6.88;;;;;;;9.13;36.88;100149.03;4908798;29;20020;-87
2022/03/11 02:01:23;;;;;;;14.75;6.55;;;;;;;9.25;36.78;100138.91;4910078;29;20048;-87
2022/03/11 02:03:49;;;;;;;12.07;5.88;;;;;;;8.90;37.27;100135.31;4908856;29;20024;-86
2022/03/11 02:06:15;;;;;;;11.90;6.32;;;;;;;9.07;37.07;100150.84;4909417;29;20051;-87
2022/03/11 02:08:42;;;;;;;12.68;6.43;;;;;;;9.01;37.48;100141.75;4908884;29;20024;-87
2022/03/11 02:11:08;;;;;;;20.48;6.65;;;;;;;9.05;37.10;100140.19;4909671;29;20038;-86
2022/03/11 02:13:46;;;;;;;16.08;7.75;;;;;;;8.82;37.91;100133.00;4909082;29;20024;-87
2022/03/11 02:16:15;;;;;;;14.45;6.40;;;;;;;8.89;37.70;100132.84;4891588;29;20032;-87
2022/03/11 02:18:41;;;;;;;14.50;5.97;;;;;;;8.93;37.67;100128.56;4905386;29;20049;-87
2022/03/11 02:21:09;;;;;;;12.68;6.97;;;;;;;8.71;38.21;100132.78;4889720;29;20116;-87
2022/03/11 02:23:54;;;;;;;16.23;7.53;;;;;;;8.63;38.52;100138.63;4890819;29;20041;-87
2022/03/11 02:26:21;;;;;;;14.13;6.57;;;;;;;8.63;38.37;100141.34;4890570;29;20080;-86
2022/03/11 02:28:48;;;;;;;14.90;6.82;;;;;;;8.74;38.05;100129.59;4889871;29;20055;-86
2022/03/11 02:31:14;;;;;;;20.92;7.93;;;;;;;8.69;38.18;100129.50;4890792;29;20029;-87
2022/03/11 02:33:40;;;;;;;14.40;7.43;;;;;;;8.70;38.45;100123.00;4889749;29;20043;-86
2022/03/11 02:36:05;;;;;;;13.35;6.78;;;;;;;8.66;38.53;100119.13;4890735;29;20278;-86
2022/03/11 02:38:31;;;;;;;14.18;8.55;;;;;;;8.64;38.65;100115.81;4889428;29;20032;-87
2022/03/11 02:40:57;;;;;;;15.40;6.90;;;;;;;8.80;38.07;100113.38;4890474;29;20048;-87
2022/03/11 02:43:23;;;;;;;17.60;7.50;;;;;;;8.50;38.65;100110.63;4903756;29;20467;-86
2022/03/11 02:48:51;;;;;;;16.02;8.15;;;;;;;8.71;38.69;100121.09;4889687;29;20051;-87
2022/03/11 02:51:16;;;;;;;21.95;7.90;;;;;;;9.05;37.91;100114.91;4889195;29;20029;-87
2022/03/11 02:53:42;;;;;;;15.35;6.13;;;;;;;8.74;37.73;100110.56;4894698;29;20031;-87
2022/03/11 02:56:09;;;;;;;19.02;8.07;;;;;;;8.50;38.14;100112.53;4907991;29;20595;-87
2022/03/11 02:58:35;;;;;;;16.17;7.40;;;;;;;8.68;38.36;100102.56;4908349;29;20438;-87
2022/03/11 03:01:02;;;;;;;16.30;7.32;;;;;;;8.53;38.61;100104.72;4908231;29;20475;-88
2022/03/11 03:03:27;;;;;;;15.07;7.07;;;;;;;8.70;38.50;100097.69;4908519;29;20037;-87
2022/03/11 03:05:53;;;;;;;12.47;7.07;;;;;;;8.69;37.90;100101.47;4908625;29;20032;-87
2022/03/11 03:08:18;;;;;;;16.15;7.32;;;;;;;8.74;37.50;100096.97;4907650;29;20314;-87
2022/03/11 03:10:43;;;;;;;17.92;7.03;;;;;;;8.47;37.73;100100.25;4909141;29;20066;-86
2022/03/11 03:16:12;;;;;;;14.23;7.40;;;;;;;8.61;37.62;100089.09;4897564;29;20147;-87
2022/03/11 03:18:37;;;;;;;21.38;8.50;;;;;;;8.50;37.76;100090.78;4895095;29;20539;-87
2022/03/11 03:21:03;;;;;;;16.63;7.25;;;;;;;8.28;37.97;100084.13;4888513;29;20080;-88
2022/03/11 03:23:28;;;;;;;14.93;8.00;;;;;;;8.56;37.68;100084.41;4889854;29;20060;-87
2022/03/11 03:25:54;;;;;;;14.55;7.15;;;;;;;8.37;38.02;100086.47;4888336;29;20039;-87
2022/03/11 03:28:19;;;;;;;17.70;8.90;;;;;;;8.51;37.89;100076.97;4888789;29;20033;-88
2022/03/11 03:30:44;;;;;;;17.63;7.95;;;;;;;8.22;38.23;100074.22;4889141;29;20029;-86
2022/03/11 03:33:10;;;;;;;15.70;7.60;;;;;;;8.66;37.43;100075.63;4888934;29;20502;-87
2022/03/11 03:35:35;;;;;;;15.70;6.68;;;;;;;8.38;37.84;100069.91;4889465;29;20263;-87
2022/03/11 03:38:01;;;;;;;14.57;6.60;;;;;;;8.14;37.67;100069.16;4888464;29;20028;-87
2022/03/11 03:40:26;;;;;;;13.23;6.77;;;;;;;8.02;38.04;100069.22;4889453;29;20550;-87
2022/03/11 03:42:51;;;;;;;16.52;7.07;;;;;;;7.70;39.18;100071.28;4887239;29;20267;-86
2022/03/11 03:45:17;;;;;;;15.02;8.02;;;;;;;7.61;38.78;100064.56;4874046;29;20358;-88
2022/03/11 03:47:43;;;;;;;24.60;9.50;;;;;;;7.63;38.69;100061.63;4907363;29;20054;-85
2022/03/11 03:50:09;;;;;;;29.45;10.60;;;;;;;7.62;39.16;100062.69;4907662;29;20274;-86
2022/03/11 03:52:34;;;;;;;15.93;6.13;;;;;;;7.82;38.63;100065.00;4907555;29;20075;-87
2022/03/11 03:57:43;;;;;;;12.52;8.43;;;;;;;7.71;38.90;100053.09;4907763;29;20820;-87
2022/03/11 04:00:09;;;;;;;15.45;8.20;;;;;;;7.59;39.13;100059.38;4906360;29;20032;-87
2022/03/11 04:02:36;;;;;;;16.30;9.05;;;;;;;7.55;39.42;100052.78;4907374;29;20035;-86
2022/03/11 04:05:05;;;;;;;22.15;9.48;;;;;;;7.59;39.30;100053.94;4889897;29;20039;-86
2022/03/11 04:07:30;;;;;;;17.38;9.32;;;;;;;7.42;39.52;100056.56;4890105;29;20390;-87
2022/03/11 04:09:55;;;;;;;18.17;8.88;;;;;;;7.66;39.44;100053.00;4907574;29;20020;-88
2022/03/11 04:12:21;;;;;;;16.67;8.10;;;;;;;7.61;39.36;100050.19;4906580;29;20232;-87
2022/03/11 04:14:46;;;;;;;24.65;8.35;;;;;;;7.12;40.63;100052.06;4907526;29;20409;-87
2022/03/11 04:17:11;;;;;;;22.85;9.95;;;;;;;7.51;40.07;100050.75;4905966;29;20024;-87
2022/03/11 04:19:37;;;;;;;17.37;8.00;;;;;;;7.37;39.81;100045.59;4897071;29;20059;-87
2022/03/11 04:22:02;;;;;;;13.90;7.13;;;;;;;7.31;40.22;100049.25;4887174;29;20794;-87
2022/03/11 04:24:27;;;;;;;26.83;10.35;;;;;;;7.33;40.70;100045.25;4888168;29;20283;-87
2022/03/11 04:26:53;;;;;;;14.65;7.32;;;;;;;7.29;40.63;100049.47;4887943;29;20029;-86
2022/03/11 04:29:18;;;;;;;16.90;8.02;;;;;;;7.26;40.46;100038.28;4871172;29;20096;-87
2022/03/11 04:31:44;;;;;;;16.90;9.75;;;;;;;7.19;40.87;100051.94;4888827;29;20032;-86
2022/03/11 04:34:09;;;;;;;14.35;7.82;;;;;;;7.05;41.36;100038.63;4887437;29;20261;-87
2022/03/11 04:36:38;;;;;;;16.67;9.27;;;;;;;7.21;40.86;100039.81;4888913;29;20032;-87
2022/03/11 04:39:04;;;;;;;20.67;9.02;;;;;;;6.99;41.14;100032.25;4886914;29;20036;-86
2022/03/11 04:41:29;;;;;;;20.08;9.40;;;;;;;6.82;41.28;100028.56;4888430;29;20052;-87
2022/03/11 04:43:55;;;;;;;20.92;9.45;;;;;;;6.96;40.98;100023.75;4887456;29;20071;-86
2022/03/11 04:46:20;;;;;;;17.77;8.90;;;;;;;6.84;41.29;100038.13;4888437;29;20032;-87
2022/03/11 04:48:47;;;;;;;19.00;9.13;;;;;;;7.08;40.81;100038.16;4888771;29;20056;-87
2022/03/11 04:51:13;;;;;;;25.02;10.32;;;;;;;7.07;40.85;100035.69;4870673;29;20397;-88
2022/03/11 04:53:39;;;;;;;17.23;8.32;;;;;;;6.75;41.50;100031.41;4892170;29;20032;-87
2022/03/11 04:56:04;;;;;;;18.17;9.80;;;;;;;7.11;40.56;100036.84;4905847;29;20470;-86
2022/03/11 05:01:32;;;;;;;20.23;10.63;;;;;;;6.81;41.89;100045.91;4901476;29;20302;-88
2022/03/11 05:03:57;;;;;;;18.50;10.18;;;;;;;6.83;41.72;100051.91;4906090;29;20024;-88
2022/03/11 05:06:23;;;;;;;22.08;10.40;;;;;;;6.81;41.79;100037.78;4907261;29;20072;-88
2022/03/11 05:08:48;;;;;;;19.38;10.50;;;;;;;6.75;42.34;100050.38;4906147;29;20083;-88
2022/03/11 05:11:13;;;;;;;21.73;11.10;;;;;;;6.50;42.32;100046.75;4907297;29;20107;-85
2022/03/11 05:13:39;;;;;;;19.85;10.65;;;;;;;6.69;42.33;100051.28;4905765;29;20024;-88
2022/03/11 05:16:04;;;;;;;18.45;9.85;;;;;;;6.65;42.25;100045.53;4910254;29;20491;-85
2022/03/11 05:18:29;;;;;;;19.77;10.00;;;;;;;6.69;42.07;100033.13;4909818;29;20052;-87
2022/03/11 05:20:55;;;;;;;23.80;10.80;;;;;;;6.72;41.97;100042.69;4910403;29;20084;-88
2022/03/11 05:23:21;;;;;;;18.73;10.30;;;;;;;6.84;41.71;100051.69;4910845;29;20321;-87
2022/03/11 05:25:46;;;;;;;26.40;12.60;;;;;;;6.54;42.45;100044.41;4910240;29;20016;-87
2022/03/11 05:28:11;;;;;;;17.48;10.73;;;;;;;6.65;42.32;100045.53;4910215;29;20063;-87
2022/03/11 05:30:37;;;;;;;22.38;12.93;;;;;;;6.57;42.48;100043.94;4909133;29;20051;-87
2022/03/11 05:33:04;;;;;;;22.92;11.35;;;;;;;6.45;43.01;100037.69;4910530;29;20400;-87
2022/03/11 05:35:29;;;;;;;22.05;10.73;;;;;;;6.84;42.11;100037.28;4908739;29;20048;-86
2022/03/11 05:37:54;;;;;;;19.08;10.77;;;;;;;6.50;42.67;100044.06;4910792;29;20060;-86
2022/03/11 05:40:19;;;;;;;22.35;12.10;;;;;;;6.24;43.12;100039.84;4909816;29;20551;-87
2022/03/11 05:42:45;;;;;;;25.92;11.35;;;;;;;6.15;43.23;100036.59;4909733;29;20028;-87
2022/03/11 05:45:10;;;;;;;18.35;10.27;;;;;;;6.34;42.98;100033.88;4909880;29;20039;-88
2022/03/11 05:47:36;;;;;;;21.42;10.63;;;;;;;6.14;43.68;100041.19;4890454;29;20056;-87
2022/03/11 05:50:01;;;;;;;19.52;11.48;;;;;;;6.30;42.93;100039.72;4891272;29;20107;-87
2022/03/11 05:52:27;;;;;;;23.27;12.25;;;;;;;6.35;43.19;100047.16;4890359;29;20468;-87
2022/03/11 05:54:52;;;;;;;19.00;11.00;;;;;;;6.15;43.54;100042.03;4874490;29;20021;-88
2022/03/11 05:57:17;;;;;;;19.70;11.90;;;;;;;6.21;43.51;100038.41;4890332;29;20032;-87
2022/03/11 05:59:43;;;;;;;26.02;13.85;;;;;;;6.44;43.17;100044.16;4890507;29;20103;-86
2022/03/11 06:02:08;;;;;;;21.30;12.45;;;;;;;5.98;43.65;100036.38;4874121;29;20090;-88
2022/03/11 06:04:34;;;;;;;22.25;11.55;;;;;;;6.11;43.50;100047.06;4889972;29;20040;-87
2022/03/11 06:06:59;;;;;;;27.00;13.52;;;;;;;6.14;43.62;100043.09;4891348;29;20028;-87
2022/03/11 06:09:24;;;;;;;24.60;11.52;;;;;;;6.15;43.68;100052.84;4889919;29;20028;-87
2022/03/11 06:11:49;;;;;;;22.92;12.63;;;;;;;6.04;43.64;100043.59;4891726;29;20040;-87
2022/03/11 06:14:15;;;;;;;26.93;12.10;;;;;;;5.94;44.12;100050.38;4889555;29;20503;-87
2022/03/11 06:16:40;;;;;;;24.57;12.50;;;;;;;6.18;43.51;100047.81;4891506;29;20307;-87
2022/03/11 06:19:05;;;;;;;22.48;11.30;;;;;;;6.19;43.02;100051.34;4895013;29;20307;-88
2022/03/11 06:21:31;;;;;;;27.70;12.15;;;;;;;6.17;43.65;100050.75;4890001;29;20119;-87
2022/03/11 06:23:57;;;;;;;23.55;12.93;;;;;;;6.01;44.07;100046.75;4890842;29;20030;-86
2022/03/11 06:26:23;;;;;;;20.38;13.73;;;;;;;5.88;43.95;100051.25;4889415;29;20028;-87
2022/03/11 06:28:48;;;;;;;22.55;11.93;;;;;;;6.28;43.49;100043.75;4904214;29;20538;-87
2022/03/11 06:34:16;;;;;;;23.05;12.85;;;;;;;6.03;43.44;100048.19;4907788;29;20532;-86
2022/03/11 06:36:41;;;;;;;19.55;12.18;;;;;;;6.25;43.16;100038.75;4909264;29;20063;-86
2022/03/11 06:39:07;;;;;;;23.87;12.00;;;;;;;6.18;43.25;100031.56;4887420;29;20560;-87
2022/03/11 06:41:33;;;;;;;34.70;12.10;;;;;;;5.95;43.75;100040.38;4885892;29;20846;-87
2022/03/11 06:43:58;;;;;;;23.17;13.75;;;;;;;5.89;44.07;100034.00;4870256;29;20025;-87
2022/03/11 06:46:23;;;;;;;23.45;13.18;;;;;;;5.80;44.28;100035.34;4882589;29;20092;-86
2022/03/11 06:48:49;;;;;;;24.45;13.18;;;;;;;5.80;43.55;100027.22;4888605;29;20036;-87
2022/03/11 06:51:14;;;;;;;27.13;11.83;;;;;;;5.72;44.26;100033.75;4890314;29;20068;-86
2022/03/11 06:53:39;;;;;;;27.27;13.67;;;;;;;5.83;44.20;100024.91;4890094;29;20797;-87
2022/03/11 06:56:04;;;;;;;27.63;14.00;;;;;;;5.51;44.78;100008.00;4889089;29;20311;-86
2022/03/11 06:58:30;;;;;;;30.67;14.23;;;;;;;5.70;44.17;100011.50;4873061;29;20324;-87
2022/03/11 07:00:56;;;;;;;26.23;13.80;;;;;;;5.77;45.42;100003.31;4890245;29;20028;-87
2022/03/11 07:03:21;;;;;;;26.75;14.68;;;;;;;5.86;44.25;100006.56;4894207;29;20107;-87
2022/03/11 07:05:46;;;;;;;31.55;12.95;;;;;;;5.64;45.16;99998.88;4893660;29;20137;-87
2022/03/11 07:08:14;;;;;;;98.67;18.73;;;;;;;5.82;45.52;100000.75;4893854;29;20043;-87
2022/03/11 07:10:39;;;;;;;25.48;13.32;;;;;;;5.99;44.23;99992.84;4893665;29;20271;-87
2022/03/11 07:13:04;;;;;;;34.05;14.18;;;;;;;5.89;44.35;99993.41;4890412;29;20573;-88
2022/03/11 07:15:30;;;;;;;27.95;12.32;;;;;;;5.85;44.20;100000.31;4884300;29;20040;-88
2022/03/11 07:17:55;;;;;;;23.50;13.10;;;;;;;5.76;44.26;100007.06;4891045;29;20063;-87
2022/03/11 07:20:21;;;;;;;26.90;13.98;;;;;;;6.15;43.67;100004.94;4907927;29;20040;-88
2022/03/11 07:22:48;;;;;;;25.92;12.45;;;;;;;6.31;43.26;100008.06;4907267;29;20327;-87
2022/03/11 07:25:14;;;;;;;27.83;12.88;;;;;;;6.18;43.14;100015.31;4908361;29;20055;-88
2022/03/11 07:27:39;;;;;;;24.02;13.50;;;;;;;6.18;43.24;100020.72;4907563;29;20059;-87
2022/03/11 07:30:05;;;;;;;26.35;12.40;;;;;;;6.55;42.45;100024.38;4908200;29;20024;-87
2022/03/11 07:32:31;;;;;;;22.33;12.43;;;;;;;6.61;42.89;100018.03;4907578;29;20087;-87
2022/03/11 07:34:56;;;;;;;22.83;13.48;;;;;;;6.83;42.20;100005.84;4907245;29;20020;-87
2022/03/11 07:37:21;;;;;;;23.30;11.97;;;;;;;6.58;42.27;100010.38;4907536;29;20020;-87
2022/03/11 07:39:47;;;;;;;21.02;12.23;;;;;;;6.88;41.85;100004.06;4906036;29;20271;-87
2022/03/11 07:42:12;;;;;;;19.13;11.07;;;;;;;6.73;42.09;100009.13;4906920;29;20031;-87
2022/03/11 07:44:40;;;;;;;28.45;13.18;;;;;;;6.40;42.85;100008.56;4905391;29;20028;-86
2022/03/11 07:47:06;;;;;;;24.70;12.55;;;;;;;6.69;42.07;100011.44;4906615;29;20032;-87
2022/03/11 07:49:31;;;;;;;24.60;12.43;;;;;;;6.51;42.43;100010.47;4905958;29;20032;-87
2022/03/11 07:51:56;;;;;;;23.67;11.45;;;;;;;6.91;41.81;100004.66;4906622;29;20017;-86
2022/03/11 07:54:36;;;;;;;27.30;13.07;;;;;;;7.12;42.01;100006.78;4887775;29;20120;-87
2022/03/11 07:57:01;;;;;;;24.13;12.67;;;;;;;7.05;41.74;100006.09;4888059;29;20120;-87
2022/03/11 07:59:29;;;;;;;21.65;12.00;;;;;;;6.82;42.11;100006.88;4888999;29;20272;-87
2022/03/11 08:01:54;;;;;;;23.20;12.05;;;;;;;7.03;41.64;100029.91;4887278;29;20029;-87
2022/03/11 08:04:19;;;;;;;21.25;11.10;;;;;;;7.33;41.60;100031.69;4888971;29;20528;-85
2022/03/11 08:06:45;;;;;;;22.33;13.65;;;;;;;7.19;41.08;100027.53;4888335;29;20064;-86
2022/03/11 08:09:10;;;;;;;28.05;13.88;;;;;;;7.48;40.67;100024.94;4888472;29;20039;-87
2022/03/11 08:11:36;;;;;;;26.30;12.38;;;;;;;7.71;40.33;100024.06;4889123;29;20655;-87
2022/03/11 08:14:01;;;;;;;22.15;11.27;;;;;;;7.94;40.16;100027.81;4886306;29;20440;-87
2022/03/11 08:16:27;;;;;;;25.70;11.38;;;;;;;8.13;39.73;100022.19;4900234;29;20028;-86
2022/03/11 08:18:52;;;;;;;28.15;13.85;;;;;;;7.93;40.24;100014.47;4896012;29;20055;-87
2022/03/11 08:21:17;;;;;;;24.27;11.83;;;;;;;7.97;40.03;100031.94;4888662;29;20036;-87
2022/03/11 08:23:43;;;;;;;22.02;12.80;;;;;;;7.98;39.90;100021.88;4887816;29;20279;-88
2022/03/11 08:26:10;;;;;;;25.67;13.20;;;;;;;8.28;39.76;100021.66;4888303;29;20512;-86
2022/03/11 08:28:36;;;;;;;23.13;12.23;;;;;;;8.43;39.38;100031.16;4888252;29;20071;-87
2022/03/11 08:31:01;;;;;;;26.77;12.90;;;;;;;8.26;39.31;100025.66;4887700;29;20041;-87
2022/03/11 08:33:30;;;;;;;19.95;10.55;;;;;;;8.48;39.25;100025.81;4888719;29;20488;-87
2022/03/11 08:35:56;;;;;;;22.70;11.35;;;;;;;8.64;38.74;100024.19;4870424;29;20028;-87
2022/03/11 08:38:22;;;;;;;20.25;10.77;;;;;;;8.57;38.90;100028.16;4888870;29;20451;-87
2022/03/11 08:40:47;;;;;;;22.80;12.07;;;;;;;8.18;39.39;100026.88;4887516;29;20194;-88
2022/03/11 08:43:12;;;;;;;26.03;11.87;;;;;;;8.40;39.44;100018.06;4888152;29;20116;-87
2022/03/11 08:45:37;;;;;;;20.75;9.18;;;;;;;8.68;38.68;100024.56;4888365;29;20267;-87
2022/03/11 08:48:03;;;;;;;30.83;12.30;;;;;;;8.04;39.67;100020.91;4888088;29;20112;-87
2022/03/11 08:50:29;;;;;;;21.05;11.02;;;;;;;8.44;38.85;100013.78;4894948;29;20508;-87
2022/03/11 08:52:54;;;;;;;24.88;12.15;;;;;;;8.38;39.29;100015.56;4893799;29;20032;-87
2022/03/11 08:55:20;;;;;;;20.40;10.07;;;;;;;8.51;38.75;100010.91;4895009;29;20039;-87
2022/03/11 08:57:51;;;;;;;22.23;10.82;;;;;;;8.34;39.43;100000.81;4912416;29;20021;-87
2022/03/11 09:00:19;;;;;;;18.10;11.25;;;;;;;8.59;38.87;100010.53;4913451;29;20040;-87
2022/03/11 09:02:45;;;;;;;20.48;10.80;;;;;;;8.70;39.00;100003.41;4912593;29;20043;-87
2022/03/11 09:05:11;;;;;;;21.45;12.10;;;;;;;8.34;39.12;99997.31;4912925;29;20441;-87
2022/03/11 09:07:37;;;;;;;23.00;10.68;;;;;;;8.56;38.52;99999.31;4913591;29;20067;-87
2022/03/11 09:12:52;;;;;;;19.88;10.98;;;;;;;8.70;39.17;99988.97;4913101;29;20076;-85
2022/03/11 09:15:17;;;;;;;20.58;11.45;;;;;;;8.75;38.91;99987.16;4910597;29;20036;-87
2022/03/11 09:17:45;;;;;;;25.00;11.90;;;;;;;8.88;39.00;99982.47;4895984;29;20416;-87
2022/03/11 09:20:12;;;;;;;20.23;11.63;;;;;;;8.98;37.84;99985.34;4911383;29;20377;-87
2022/03/11 09:22:38;;;;;;;18.45;10.27;;;;;;;8.94;38.74;99984.19;4912798;29;20036;-88
2022/03/11 09:25:04;;;;;;;20.20;10.40;;;;;;;8.99;38.48;99981.53;4913591;29;20083;-86
2022/03/11 09:27:30;;;;;;;19.30;10.02;;;;;;;9.19;37.96;99985.63;4911858;29;20036;-89
2022/03/11 09:29:56;;;;;;;22.95;11.13;;;;;;;9.12;37.33;99974.09;4913543;29;20083;-86
2022/03/11 09:32:21;;;;;;;23.67;10.18;;;;;;;9.11;37.29;99967.03;4912103;29;20515;-86
2022/03/11 09:34:47;;;;;;;21.15;11.05;;;;;;;8.94;37.56;99969.75;4912119;29;20077;-87
2022/03/11 09:37:13;;;;;;;20.15;10.93;;;;;;;9.28;37.15;99966.16;4912191;29;20039;-87
2022/03/11 09:39:38;;;;;;;18.90;11.55;;;;;;;9.01;37.64;99972.31;4912946;29;20032;-87
2022/03/11 09:42:05;;;;;;;23.45;10.95;;;;;;;9.19;37.38;99979.38;4912831;29;20035;-86
2022/03/11 09:44:30;;;;;;;22.10;10.38;;;;;;;9.46;37.16;99975.91;4911568;29;20035;-87
2022/03/11 09:46:57;;;;;;;21.17;11.48;;;;;;;9.43;37.39;99969.09;4914202;29;20043;-87
2022/03/11 09:49:22;;;;;;;15.95;9.13;;;;;;;9.48;36.49;99970.25;4911678;29;20032;-88
2022/03/11 09:51:47;;;;;;;20.88;10.52;;;;;;;9.35;36.89;99966.81;4913737;29;20024;-87
2022/03/11 09:54:14;;;;;;;23.25;11.07;;;;;;;9.73;36.83;99974.34;4920209;29;20032;-87
2022/03/11 09:56:41;;;;;;;23.05;10.27;;;;;;;9.84;36.99;99973.41;4931752;29;20430;-88
2022/03/11 09:59:08;;;;;;;27.80;13.63;;;;;;;9.63;37.14;99967.72;4931721;29;20031;-87
2022/03/11 10:01:33;;;;;;;20.40;11.32;;;;;;;9.78;37.25;99955.38;4927225;29;20028;-88
2022/03/11 10:04:00;;;;;;;21.65;11.15;;;;;;;9.96;36.94;99942.47;4928583;29;20276;-89
2022/03/11 10:06:42;;;;;;;20.00;10.73;;;;;;;10.04;36.81;99940.13;4927503;29;20048;-88
2022/03/11 10:09:17;;;;;;;17.40;9.43;;;;;;;10.15;36.82;99934.75;4929148;29;20028;-87
2022/03/11 10:11:42;;;;;;;24.20;11.88;;;;;;;10.31;36.16;99938.47;4927884;29;20028;-88
2022/03/11 10:14:08;;;;;;;21.58;11.60;;;;;;;10.34;36.35;99940.66;4928154;29;20427;-88
2022/03/11 10:16:35;;;;;;;19.52;11.13;;;;;;;10.34;36.69;99929.75;4917570;29;20059;-89
2022/03/11 10:19:06;;;;;;;23.45;11.48;;;;;;;10.34;36.52;99943.38;4908717;29;20400;-88
2022/03/11 10:21:46;;;;;;;18.42;9.95;;;;;;;10.45;36.26;99938.03;4910075;29;20310;-88
2022/03/11 10:24:13;;;;;;;21.90;10.82;;;;;;;10.59;35.56;99938.44;4908607;29;20135;-88
2022/03/11 10:26:44;;;;;;;25.75;11.00;;;;;;;10.52;35.76;99938.66;4910103;29;20052;-89
2022/03/11 10:29:23;;;;;;;23.98;10.52;;;;;;;10.52;35.11;99938.66;4908941;29;20028;-88
2022/03/11 10:31:55;;;;;;;18.27;9.80;;;;;;;10.60;35.29;99924.53;4908286;29;20028;-87
2022/03/11 10:34:24;;;;;;;18.60;9.20;;;;;;;10.75;35.28;99920.28;4909224;29;20527;-87
2022/03/11 10:36:52;;;;;;;21.67;10.70;;;;;;;10.66;35.85;99928.13;4908138;29;20055;-88
2022/03/11 10:39:30;;;;;;;18.83;9.05;;;;;;;10.96;35.26;99920.44;4910028;29;20044;-87
2022/03/11 10:42:15;;;;;;;17.27;9.27;;;;;;;10.95;35.01;99918.78;4908828;29;20111;-87
2022/03/11 10:44:53;;;;;;;20.77;9.57;;;;;;;10.79;35.30;99915.97;4908456;29;20035;-88
2022/03/11 10:47:29;;;;;;;23.27;11.60;;;;;;;10.93;34.64;99913.59;4910260;29;20143;-88
2022/03/11 10:49:57;;;;;;;21.88;11.18;;;;;;;10.96;35.10;99914.97;4908122;29;20056;-88
2022/03/11 10:52:56;;;;;;;22.92;11.80;;;;;;;11.13;34.89;99908.50;4908984;29;20040;-87
2022/03/11 10:55:23;;;;;;;19.13;9.40;;;;;;;11.20;34.88;99909.09;4924739;29;20035;-88
2022/03/11 10:57:52;;;;;;;21.05;11.98;;;;;;;11.32;35.03;99912.44;4926717;29;20044;-89
2022/03/11 11:00:22;;;;;;;24.58;12.38;;;;;;;11.53;34.90;99909.75;4928623;29;20054;-88
2022/03/11 11:02:49;;;;;;;17.25;10.50;;;;;;;11.41;34.70;99911.94;4926546;29;20412;-87
2022/03/11 11:05:15;;;;;;;20.25;11.43;;;;;;;11.54;33.77;99918.78;4928304;29;20035;-88
2022/03/11 11:07:41;;;;;;;18.05;10.38;;;;;;;11.68;34.32;99908.19;4926933;28;20090;-89
2022/03/11 11:10:17;;;;;;;16.63;10.27;;;;;;;11.81;34.05;99895.94;4927457;29;20539;-88
2022/03/11 11:12:44;;;;;;;20.27;10.05;;;;;;;11.85;34.01;99905.22;4926861;29;20303;-87
2022/03/11 11:15:10;;;;;;;20.48;9.75;;;;;;;11.81;34.21;99889.63;4926007;29;20446;-88
2022/03/11 11:17:49;;;;;;;21.50;10.63;;;;;;;12.01;33.76;99889.69;4909017;29;20040;-88
2022/03/11 11:20:24;;;;;;;16.33;9.93;;;;;;;11.97;34.08;99893.22;4907492;29;20497;-89
2022/03/11 11:22:52;;;;;;;22.23;11.32;;;;;;;11.96;33.36;99892.38;4907849;29;20498;-87
2022/03/11 11:25:20;;;;;;;17.77;10.32;;;;;;;12.00;33.88;99888.03;4908596;29;20036;-89
2022/03/11 11:27:47;;;;;;;22.20;10.50;;;;;;;12.08;33.87;99889.41;4907707;29;20039;-87
2022/03/11 11:30:17;;;;;;;17.35;9.73;;;;;;;12.24;33.58;99890.25;4909036;29;20138;-88
2022/03/11 11:32:43;;;;;;;28.20;11.85;;;;;;;12.34;33.29;99883.16;4907383;29;20044;-88
2022/03/11 11:35:22;;;;;;;22.83;10.55;;;;;;;12.36;34.04;99875.50;4908851;29;20598;-88
2022/03/11 11:37:47;;;;;;;21.52;11.55;;;;;;;12.25;33.28;99878.25;4907434;29;20024;-88